0A7 weather

Hendersonville Airport
Hendersonville, North Carolina, United States

Public forecast

Using degrees Fahrenheit for public forecast. Weather courtesy of forecast.io.

METAR (pilot weather report)

Closest report is Asheville Regional Airport, 9.4 nm (17.4 km) NW. Retrieved 2019/07/18 13:54 UTC (24 minutes ago):

KAVL 181354Z 00000KT 10SM FEW010 25/20 A3013 RMK AO2 SLP173 T02500200

TAF (pilot weather forecast)

Closest forecast is Asheville Regional Airport, 9.4 nm (17.4 km) NW. Retrieved 2019/07/18 12:00 UTC (2 hours ago):

TAF COR KAVL 181158Z 1812/1912 34004KT P6SM SCT070 BKN250 FM181700 31005KT P6SM VCTS BKN035CB TEMPO 1817/1821 4SM TSRA OVC015CB FM190000 34003KT P6SM SCT070 SCT250 FM190700 34003KT 3SM BR SCT070 SCT250